sensor_id;sensor_type;location;lat;lon;timestamp;temperature;humidity
2010;DHT22;1008;47.404;8.502;2023-02-18T00:01:56;11.30;99.90
2010;DHT22;1008;47.404;8.502;2023-02-18T00:04:23;11.30;99.90
2010;DHT22;1008;47.404;8.502;2023-02-18T00:06:51;11.30;99.90
2010;DHT22;1008;47.404;8.502;2023-02-18T00:09:17;11.40;99.90
2010;DHT22;1008;47.404;8.502;2023-02-18T00:11:44;11.20;99.90
2010;DHT22;1008;47.404;8.502;2023-02-18T00:14:12;11.10;99.90
2010;DHT22;1008;47.404;8.502;2023-02-18T00:16:39;11.20;99.90
2010;DHT22;1008;47.404;8.502;2023-02-18T00:19:10;11.30;99.90
2010;DHT22;1008;47.404;8.502;2023-02-18T00:21:37;11.20;99.90
2010;DHT22;1008;47.404;8.502;2023-02-18T00:24:06;11.30;99.90
2010;DHT22;1008;47.404;8.502;2023-02-18T00:26:34;11.30;99.90
2010;DHT22;1008;47.404;8.502;2023-02-18T00:29:01;11.60;99.90
2010;DHT22;1008;47.404;8.502;2023-02-18T00:31:31;11.20;99.90
2010;DHT22;1008;47.404;8.502;2023-02-18T00:33:58;11.20;99.90
2010;DHT22;1008;47.404;8.502;2023-02-18T00:36:25;11.10;99.90
2010;DHT22;1008;47.404;8.502;2023-02-18T00:38:54;11.20;99.90
2010;DHT22;1008;47.404;8.502;2023-02-18T00:41:25;11.20;99.90
2010;DHT22;1008;47.404;8.502;2023-02-18T00:43:53;11.10;99.90
2010;DHT22;1008;47.404;8.502;2023-02-18T00:46:20;11.20;99.90
2010;DHT22;1008;47.404;8.502;2023-02-18T00:48:46;11.20;99.90
2010;DHT22;1008;47.404;8.502;2023-02-18T00:51:13;11.00;99.90
2010;DHT22;1008;47.404;8.502;2023-02-18T00:53:40;11.20;99.90
2010;DHT22;1008;47.404;8.502;2023-02-18T00:56:07;11.30;99.90
2010;DHT22;1008;47.404;8.502;2023-02-18T00:58:36;11.30;99.90
2010;DHT22;1008;47.404;8.502;2023-02-18T01:01:04;11.10;99.90
2010;DHT22;1008;47.404;8.502;2023-02-18T01:03:31;11.00;99.90
2010;DHT22;1008;47.404;8.502;2023-02-18T01:05:57;11.10;99.90
2010;DHT22;1008;47.404;8.502;2023-02-18T01:08:24;11.30;99.90
2010;DHT22;1008;47.404;8.502;2023-02-18T01:10:54;11.20;99.90
2010;DHT22;1008;47.404;8.502;2023-02-18T01:13:21;11.20;99.90
2010;DHT22;1008;47.404;8.502;2023-02-18T01:15:49;11.20;99.90
2010;DHT22;1008;47.404;8.502;2023-02-18T01:18:16;11.10;99.90
2010;DHT22;1008;47.404;8.502;2023-02-18T01:20:44;11.00;99.90
2010;DHT22;1008;47.404;8.502;2023-02-18T01:23:11;11.10;99.90
2010;DHT22;1008;47.404;8.502;2023-02-18T01:25:39;10.90;99.90
2010;DHT22;1008;47.404;8.502;2023-02-18T01:28:06;11.00;99.90
2010;DHT22;1008;47.404;8.502;2023-02-18T01:30:34;11.10;99.90
2010;DHT22;1008;47.404;8.502;2023-02-18T01:33:02;11.00;99.90
2010;DHT22;1008;47.404;8.502;2023-02-18T01:35:29;11.10;99.90
2010;DHT22;1008;47.404;8.502;2023-02-18T01:37:56;11.00;99.90
2010;DHT22;1008;47.404;8.502;2023-02-18T01:40:24;10.90;99.90
2010;DHT22;1008;47.404;8.502;2023-02-18T01:42:51;10.90;99.90
2010;DHT22;1008;47.404;8.502;2023-02-18T01:45:56;10.80;99.90
2010;DHT22;1008;47.404;8.502;2023-02-18T01:48:27;10.90;99.90
2010;DHT22;1008;47.404;8.502;2023-02-18T01:50:57;10.90;99.90
2010;DHT22;1008;47.404;8.502;2023-02-18T01:53:27;10.90;99.90
2010;DHT22;1008;47.404;8.502;2023-02-18T01:55:56;10.90;99.90
2010;DHT22;1008;47.404;8.502;2023-02-18T01:58:24;10.90;99.90
2010;DHT22;1008;47.404;8.502;2023-02-18T02:00:51;11.00;99.90
2010;DHT22;1008;47.404;8.502;2023-02-18T02:03:18;11.00;99.90
2010;DHT22;1008;47.404;8.502;2023-02-18T02:05:46;10.90;99.90
2010;DHT22;1008;47.404;8.502;2023-02-18T02:08:12;10.90;99.90
2010;DHT22;1008;47.404;8.502;2023-02-18T02:10:51;11.20;99.90
2010;DHT22;1008;47.404;8.502;2023-02-18T02:13:28;11.30;99.90
2010;DHT22;1008;47.404;8.502;2023-02-18T02:16:04;11.30;99.90
2010;DHT22;1008;47.404;8.502;2023-02-18T02:18:46;11.30;99.90
2010;DHT22;1008;47.404;8.502;2023-02-18T02:21:56;11.20;99.90
2010;DHT22;1008;47.404;8.502;2023-02-18T02:27:25;11.40;99.90
2010;DHT22;1008;47.404;8.502;2023-02-18T02:35:53;11.20;99.90
2010;DHT22;1008;47.404;8.502;2023-02-18T02:38:28;11.30;99.90
2010;DHT22;1008;47.404;8.502;2023-02-18T02:41:06;11.30;99.90
2010;DHT22;1008;47.404;8.502;2023-02-18T02:43:47;11.30;99.90
2010;DHT22;1008;47.404;8.502;2023-02-18T02:46:20;11.20;99.90
2010;DHT22;1008;47.404;8.502;2023-02-18T02:48:57;11.10;99.90
2010;DHT22;1008;47.404;8.502;2023-02-18T02:51:29;11.30;99.90
2010;DHT22;1008;47.404;8.502;2023-02-18T02:54:09;11.10;99.90
2010;DHT22;1008;47.404;8.502;2023-02-18T02:56:36;11.20;99.90
2010;DHT22;1008;47.404;8.502;2023-02-18T02:59:09;11.20;99.90
2010;DHT22;1008;47.404;8.502;2023-02-18T03:01:46;11.20;99.90
2010;DHT22;1008;47.404;8.502;2023-02-18T03:04:35;11.30;99.90
2010;DHT22;1008;47.404;8.502;2023-02-18T03:13:06;11.20;99.90
2010;DHT22;1008;47.404;8.502;2023-02-18T03:15:39;11.00;99.90
2010;DHT22;1008;47.404;8.502;2023-02-18T03:18:16;11.00;99.90
2010;DHT22;1008;47.404;8.502;2023-02-18T03:20:49;10.90;99.90
2010;DHT22;1008;47.404;8.502;2023-02-18T03:23:23;10.90;99.90
2010;DHT22;1008;47.404;8.502;2023-02-18T03:25:53;10.90;99.90
2010;DHT22;1008;47.404;8.502;2023-02-18T03:28:22;11.00;99.90
2010;DHT22;1008;47.404;8.502;2023-02-18T03:30:51;10.80;99.90
2010;DHT22;1008;47.404;8.502;2023-02-18T03:33:22;10.80;99.90
2010;DHT22;1008;47.404;8.502;2023-02-18T03:35:52;10.90;99.90
2010;DHT22;1008;47.404;8.502;2023-02-18T03:38:25;10.90;99.90
2010;DHT22;1008;47.404;8.502;2023-02-18T03:40:55;10.90;99.90
2010;DHT22;1008;47.404;8.502;2023-02-18T03:43:22;11.00;99.90
2010;DHT22;1008;47.404;8.502;2023-02-18T03:45:49;11.00;99.90
2010;DHT22;1008;47.404;8.502;2023-02-18T03:48:16;11.00;99.90
2010;DHT22;1008;47.404;8.502;2023-02-18T03:50:43;11.10;99.90
2010;DHT22;1008;47.404;8.502;2023-02-18T03:53:10;11.10;99.90
2010;DHT22;1008;47.404;8.502;2023-02-18T03:55:38;11.20;99.90
2010;DHT22;1008;47.404;8.502;2023-02-18T03:58:05;11.10;99.90
2010;DHT22;1008;47.404;8.502;2023-02-18T04:00:31;11.10;99.90
2010;DHT22;1008;47.404;8.502;2023-02-18T04:02:58;11.10;99.90
2010;DHT22;1008;47.404;8.502;2023-02-18T04:05:25;11.00;99.90
2010;DHT22;1008;47.404;8.502;2023-02-18T04:07:52;10.90;99.90
2010;DHT22;1008;47.404;8.502;2023-02-18T04:10:19;10.90;99.90
2010;DHT22;1008;47.404;8.502;2023-02-18T04:12:48;11.00;99.90
2010;DHT22;1008;47.404;8.502;2023-02-18T04:15:15;11.00;99.90
2010;DHT22;1008;47.404;8.502;2023-02-18T04:17:42;11.00;99.90
2010;DHT22;1008;47.404;8.502;2023-02-18T04:20:09;11.00;99.90
2010;DHT22;1008;47.404;8.502;2023-02-18T04:22:36;11.00;99.90
2010;DHT22;1008;47.404;8.502;2023-02-18T04:25:03;10.90;99.90
2010;DHT22;1008;47.404;8.502;2023-02-18T04:27:30;10.90;99.90
2010;DHT22;1008;47.404;8.502;2023-02-18T04:29:59;10.80;99.90
2010;DHT22;1008;47.404;8.502;2023-02-18T04:32:25;10.90;99.90
2010;DHT22;1008;47.404;8.502;2023-02-18T04:34:52;10.70;99.90
2010;DHT22;1008;47.404;8.502;2023-02-18T04:37:19;10.70;99.90
2010;DHT22;1008;47.404;8.502;2023-02-18T04:39:45;10.60;99.90
2010;DHT22;1008;47.404;8.502;2023-02-18T04:42:12;10.60;99.90
2010;DHT22;1008;47.404;8.502;2023-02-18T04:44:39;10.50;99.90
2010;DHT22;1008;47.404;8.502;2023-02-18T04:47:07;10.70;99.90
2010;DHT22;1008;47.404;8.502;2023-02-18T04:49:34;10.70;99.90
2010;DHT22;1008;47.404;8.502;2023-02-18T04:52:01;10.60;99.90
2010;DHT22;1008;47.404;8.502;2023-02-18T04:54:28;10.70;99.90
2010;DHT22;1008;47.404;8.502;2023-02-18T04:56:55;10.60;99.90
2010;DHT22;1008;47.404;8.502;2023-02-18T04:59:22;10.60;99.90
2010;DHT22;1008;47.404;8.502;2023-02-18T05:01:49;10.60;99.90
2010;DHT22;1008;47.404;8.502;2023-02-18T05:04:17;10.60;99.90
2010;DHT22;1008;47.404;8.502;2023-02-18T05:06:44;10.60;99.90
2010;DHT22;1008;47.404;8.502;2023-02-18T05:09:11;10.50;99.90
2010;DHT22;1008;47.404;8.502;2023-02-18T05:11:37;10.60;99.90
2010;DHT22;1008;47.404;8.502;2023-02-18T05:14:04;10.60;99.90
2010;DHT22;1008;47.404;8.502;2023-02-18T05:16:31;10.80;99.90
2010;DHT22;1008;47.404;8.502;2023-02-18T05:18:58;10.80;99.90
2010;DHT22;1008;47.404;8.502;2023-02-18T05:21:26;10.60;99.90
2010;DHT22;1008;47.404;8.502;2023-02-18T05:23:53;10.80;99.90
2010;DHT22;1008;47.404;8.502;2023-02-18T05:26:20;10.80;99.90
2010;DHT22;1008;47.404;8.502;2023-02-18T05:28:46;10.70;99.90
2010;DHT22;1008;47.404;8.502;2023-02-18T05:31:13;10.60;99.90
2010;DHT22;1008;47.404;8.502;2023-02-18T05:33:40;10.60;99.90
2010;DHT22;1008;47.404;8.502;2023-02-18T05:36:07;10.50;99.90
2010;DHT22;1008;47.404;8.502;2023-02-18T05:38:35;10.50;99.90
2010;DHT22;1008;47.404;8.502;2023-02-18T05:41:02;10.60;99.90
2010;DHT22;1008;47.404;8.502;2023-02-18T05:43:29;10.50;99.90
2010;DHT22;1008;47.404;8.502;2023-02-18T05:46:16;10.50;99.90
2010;DHT22;1008;47.404;8.502;2023-02-18T05:48:42;10.50;99.90
2010;DHT22;1008;47.404;8.502;2023-02-18T05:51:09;10.50;99.90
2010;DHT22;1008;47.404;8.502;2023-02-18T05:53:37;10.50;99.90
2010;DHT22;1008;47.404;8.502;2023-02-18T05:56:05;10.50;99.90
2010;DHT22;1008;47.404;8.502;2023-02-18T05:58:32;10.50;99.90
2010;DHT22;1008;47.404;8.502;2023-02-18T06:00:59;10.50;99.90
2010;DHT22;1008;47.404;8.502;2023-02-18T06:03:25;10.50;99.90
2010;DHT22;1008;47.404;8.502;2023-02-18T06:05:52;10.30;99.90
2010;DHT22;1008;47.404;8.502;2023-02-18T06:08:19;10.40;99.90
2010;DHT22;1008;47.404;8.502;2023-02-18T06:10:47;10.30;99.90
2010;DHT22;1008;47.404;8.502;2023-02-18T06:13:14;10.30;99.90
2010;DHT22;1008;47.404;8.502;2023-02-18T06:15:40;10.50;99.90
2010;DHT22;1008;47.404;8.502;2023-02-18T06:18:08;10.20;99.90
2010;DHT22;1008;47.404;8.502;2023-02-18T06:20:34;10.20;99.90
2010;DHT22;1008;47.404;8.502;2023-02-18T06:23:01;10.20;99.90
2010;DHT22;1008;47.404;8.502;2023-02-18T06:25:28;10.30;99.90
2010;DHT22;1008;47.404;8.502;2023-02-18T06:27:56;10.40;99.90
2010;DHT22;1008;47.404;8.502;2023-02-18T06:30:23;10.40;99.90
2010;DHT22;1008;47.404;8.502;2023-02-18T06:32:49;10.50;99.90
2010;DHT22;1008;47.404;8.502;2023-02-18T06:35:16;10.80;99.90
2010;DHT22;1008;47.404;8.502;2023-02-18T06:37:43;10.50;99.90
2010;DHT22;1008;47.404;8.502;2023-02-18T06:40:10;10.30;99.90
2010;DHT22;1008;47.404;8.502;2023-02-18T06:42:37;10.30;99.90
2010;DHT22;1008;47.404;8.502;2023-02-18T06:45:06;10.40;99.90
2010;DHT22;1008;47.404;8.502;2023-02-18T06:47:33;10.30;99.90
2010;DHT22;1008;47.404;8.502;2023-02-18T06:50:00;10.40;99.90
2010;DHT22;1008;47.404;8.502;2023-02-18T06:52:26;10.50;99.90
2010;DHT22;1008;47.404;8.502;2023-02-18T06:54:55;10.70;99.90
2010;DHT22;1008;47.404;8.502;2023-02-18T06:57:21;11.00;99.90
2010;DHT22;1008;47.404;8.502;2023-02-18T06:59:48;10.60;99.90
2010;DHT22;1008;47.404;8.502;2023-02-18T07:02:16;10.50;99.90
2010;DHT22;1008;47.404;8.502;2023-02-18T07:04:43;10.60;99.90
2010;DHT22;1008;47.404;8.502;2023-02-18T07:07:10;10.60;99.90
2010;DHT22;1008;47.404;8.502;2023-02-18T07:09:37;10.70;99.90
2010;DHT22;1008;47.404;8.502;2023-02-18T07:12:04;10.80;99.90
2010;DHT22;1008;47.404;8.502;2023-02-18T07:14:31;10.70;99.90
2010;DHT22;1008;47.404;8.502;2023-02-18T07:16:58;10.70;99.90
2010;DHT22;1008;47.404;8.502;2023-02-18T07:19:26;10.80;99.90
2010;DHT22;1008;47.404;8.502;2023-02-18T07:21:53;10.80;99.90
2010;DHT22;1008;47.404;8.502;2023-02-18T07:24:22;10.70;99.90
2010;DHT22;1008;47.404;8.502;2023-02-18T07:26:48;10.70;99.90
2010;DHT22;1008;47.404;8.502;2023-02-18T07:29:15;10.80;99.90
2010;DHT22;1008;47.404;8.502;2023-02-18T07:31:42;10.80;99.90
2010;DHT22;1008;47.404;8.502;2023-02-18T07:34:09;11.30;99.90
2010;DHT22;1008;47.404;8.502;2023-02-18T07:36:37;11.70;99.90
2010;DHT22;1008;47.404;8.502;2023-02-18T07:39:04;11.60;99.90
2010;DHT22;1008;47.404;8.502;2023-02-18T07:41:30;11.60;99.90
2010;DHT22;1008;47.404;8.502;2023-02-18T07:43:57;11.30;99.90
2010;DHT22;1008;47.404;8.502;2023-02-18T07:46:24;11.30;99.90
2010;DHT22;1008;47.404;8.502;2023-02-18T07:48:51;11.00;99.90
2010;DHT22;1008;47.404;8.502;2023-02-18T07:51:17;10.90;99.90
2010;DHT22;1008;47.404;8.502;2023-02-18T07:53:45;10.80;99.90
2010;DHT22;1008;47.404;8.502;2023-02-18T07:56:12;10.70;99.90
2010;DHT22;1008;47.404;8.502;2023-02-18T07:58:39;10.80;99.90
2010;DHT22;1008;47.404;8.502;2023-02-18T08:01:07;10.80;99.90
2010;DHT22;1008;47.404;8.502;2023-02-18T08:03:34;10.80;99.90
2010;DHT22;1008;47.404;8.502;2023-02-18T08:06:03;10.80;99.90
2010;DHT22;1008;47.404;8.502;2023-02-18T08:08:31;11.00;99.90
2010;DHT22;1008;47.404;8.502;2023-02-18T08:11:01;11.10;99.90
2010;DHT22;1008;47.404;8.502;2023-02-18T08:13:28;11.00;99.90
2010;DHT22;1008;47.404;8.502;2023-02-18T08:15:55;11.00;99.90
2010;DHT22;1008;47.404;8.502;2023-02-18T08:18:24;11.10;99.90
2010;DHT22;1008;47.404;8.502;2023-02-18T08:20:51;11.20;99.90
2010;DHT22;1008;47.404;8.502;2023-02-18T08:23:19;11.30;99.90
2010;DHT22;1008;47.404;8.502;2023-02-18T08:25:48;11.60;99.90
2010;DHT22;1008;47.404;8.502;2023-02-18T08:28:17;11.70;99.90
2010;DHT22;1008;47.404;8.502;2023-02-18T08:30:45;11.70;99.90
2010;DHT22;1008;47.404;8.502;2023-02-18T08:33:12;11.50;99.90
2010;DHT22;1008;47.404;8.502;2023-02-18T08:35:39;11.40;99.90
2010;DHT22;1008;47.404;8.502;2023-02-18T08:38:06;11.40;99.90
2010;DHT22;1008;47.404;8.502;2023-02-18T08:40:33;11.40;99.90
2010;DHT22;1008;47.404;8.502;2023-02-18T08:42:59;11.30;99.90
2010;DHT22;1008;47.404;8.502;2023-02-18T08:45:28;11.40;99.90
2010;DHT22;1008;47.404;8.502;2023-02-18T08:47:54;11.60;99.90
2010;DHT22;1008;47.404;8.502;2023-02-18T08:50:21;11.60;99.90
2010;DHT22;1008;47.404;8.502;2023-02-18T08:52:51;11.80;99.90
2010;DHT22;1008;47.404;8.502;2023-02-18T08:55:18;11.60;99.90
2010;DHT22;1008;47.404;8.502;2023-02-18T08:57:45;11.70;99.90
2010;DHT22;1008;47.404;8.502;2023-02-18T09:00:14;11.90;99.90
2010;DHT22;1008;47.404;8.502;2023-02-18T09:02:42;11.80;99.90
2010;DHT22;1008;47.404;8.502;2023-02-18T09:05:10;12.00;99.90
2010;DHT22;1008;47.404;8.502;2023-02-18T09:07:37;11.90;99.90
2010;DHT22;1008;47.404;8.502;2023-02-18T09:10:05;11.90;99.90
2010;DHT22;1008;47.404;8.502;2023-02-18T09:12:33;11.90;99.90
2010;DHT22;1008;47.404;8.502;2023-02-18T09:15:00;12.00;99.90
2010;DHT22;1008;47.404;8.502;2023-02-18T09:17:27;12.10;99.90
2010;DHT22;1008;47.404;8.502;2023-02-18T09:19:57;12.20;99.90
2010;DHT22;1008;47.404;8.502;2023-02-18T09:22:23;12.40;99.90
2010;DHT22;1008;47.404;8.502;2023-02-18T09:24:50;12.50;99.90
2010;DHT22;1008;47.404;8.502;2023-02-18T09:27:17;12.60;99.90
2010;DHT22;1008;47.404;8.502;2023-02-18T09:29:44;12.20;99.90
2010;DHT22;1008;47.404;8.502;2023-02-18T09:32:11;12.00;99.90
2010;DHT22;1008;47.404;8.502;2023-02-18T09:34:37;12.00;99.90
2010;DHT22;1008;47.404;8.502;2023-02-18T09:37:05;12.20;99.90
2010;DHT22;1008;47.404;8.502;2023-02-18T09:39:32;12.30;99.90
2010;DHT22;1008;47.404;8.502;2023-02-18T09:42:01;12.30;99.90
2010;DHT22;1008;47.404;8.502;2023-02-18T09:44:32;12.40;99.90
2010;DHT22;1008;47.404;8.502;2023-02-18T09:47:02;12.30;99.90
2010;DHT22;1008;47.404;8.502;2023-02-18T09:49:33;12.60;99.90
2010;DHT22;1008;47.404;8.502;2023-02-18T09:52:06;12.60;99.90
2010;DHT22;1008;47.404;8.502;2023-02-18T09:54:36;12.30;99.90
2010;DHT22;1008;47.404;8.502;2023-02-18T09:57:05;12.30;99.90
2010;DHT22;1008;47.404;8.502;2023-02-18T09:59:33;12.30;99.90
2010;DHT22;1008;47.404;8.502;2023-02-18T10:02:00;12.10;99.90
2010;DHT22;1008;47.404;8.502;2023-02-18T10:04:30;12.50;99.90
2010;DHT22;1008;47.404;8.502;2023-02-18T10:07:01;12.40;99.90
2010;DHT22;1008;47.404;8.502;2023-02-18T10:09:33;12.50;99.90
2010;DHT22;1008;47.404;8.502;2023-02-18T10:12:09;12.60;99.90
2010;DHT22;1008;47.404;8.502;2023-02-18T10:14:37;12.50;99.90
2010;DHT22;1008;47.404;8.502;2023-02-18T10:17:04;12.50;99.90
2010;DHT22;1008;47.404;8.502;2023-02-18T10:19:33;12.80;99.90
2010;DHT22;1008;47.404;8.502;2023-02-18T10:22:03;13.00;99.90
2010;DHT22;1008;47.404;8.502;2023-02-18T10:24:34;13.00;99.90
2010;DHT22;1008;47.404;8.502;2023-02-18T10:27:05;12.90;99.90
2010;DHT22;1008;47.404;8.502;2023-02-18T10:29:33;12.90;99.90
2010;DHT22;1008;47.404;8.502;2023-02-18T10:32:06;12.90;99.90
2010;DHT22;1008;47.404;8.502;2023-02-18T10:34:39;12.80;99.90
2010;DHT22;1008;47.404;8.502;2023-02-18T10:37:17;12.90;99.90
2010;DHT22;1008;47.404;8.502;2023-02-18T10:39:56;12.90;99.90
2010;DHT22;1008;47.404;8.502;2023-02-18T10:42:32;12.80;99.90
2010;DHT22;1008;47.404;8.502;2023-02-18T10:45:12;13.30;99.90
2010;DHT22;1008;47.404;8.502;2023-02-18T10:47:49;13.50;99.90
2010;DHT22;1008;47.404;8.502;2023-02-18T10:50:24;13.70;99.90
2010;DHT22;1008;47.404;8.502;2023-02-18T10:52:55;13.90;99.90
2010;DHT22;1008;47.404;8.502;2023-02-18T10:55:35;13.90;99.90
2010;DHT22;1008;47.404;8.502;2023-02-18T10:58:02;13.70;99.90
2010;DHT22;1008;47.404;8.502;2023-02-18T11:00:34;13.20;99.90
2010;DHT22;1008;47.404;8.502;2023-02-18T11:03:13;13.30;99.90
2010;DHT22;1008;47.404;8.502;2023-02-18T11:05:41;13.40;99.90
2010;DHT22;1008;47.404;8.502;2023-02-18T11:08:10;13.10;99.90
2010;DHT22;1008;47.404;8.502;2023-02-18T11:10:43;13.00;99.90
2010;DHT22;1008;47.404;8.502;2023-02-18T11:13:13;13.00;99.90
2010;DHT22;1008;47.404;8.502;2023-02-18T11:15:54;13.00;99.90
2010;DHT22;1008;47.404;8.502;2023-02-18T11:18:28;13.20;99.90
2010;DHT22;1008;47.404;8.502;2023-02-18T11:20:57;13.50;99.90
2010;DHT22;1008;47.404;8.502;2023-02-18T11:23:24;13.70;99.90
2010;DHT22;1008;47.404;8.502;2023-02-18T11:25:58;13.70;99.90
2010;DHT22;1008;47.404;8.502;2023-02-18T11:28:39;13.70;99.90
2010;DHT22;1008;47.404;8.502;2023-02-18T11:31:07;13.80;99.90
2010;DHT22;1008;47.404;8.502;2023-02-18T11:33:38;13.90;99.90
2010;DHT22;1008;47.404;8.502;2023-02-18T11:36:15;14.00;99.90
2010;DHT22;1008;47.404;8.502;2023-02-18T11:38:46;14.10;99.90
2010;DHT22;1008;47.404;8.502;2023-02-18T11:41:17;13.80;99.90
2010;DHT22;1008;47.404;8.502;2023-02-18T11:43:46;13.60;99.90
2010;DHT22;1008;47.404;8.502;2023-02-18T11:46:16;13.80;99.90
2010;DHT22;1008;47.404;8.502;2023-02-18T11:48:43;14.10;99.90
2010;DHT22;1008;47.404;8.502;2023-02-18T11:51:15;14.10;99.90
2010;DHT22;1008;47.404;8.502;2023-02-18T11:53:58;14.10;99.90
2010;DHT22;1008;47.404;8.502;2023-02-18T11:56:29;14.20;99.90
2010;DHT22;1008;47.404;8.502;2023-02-18T11:58:57;14.20;99.90
2010;DHT22;1008;47.404;8.502;2023-02-18T12:01:30;14.20;99.90
2010;DHT22;1008;47.404;8.502;2023-02-18T12:04:03;14.60;99.90
2010;DHT22;1008;47.404;8.502;2023-02-18T12:06:34;14.70;99.90
2010;DHT22;1008;47.404;8.502;2023-02-18T12:09:05;14.80;99.90
2010;DHT22;1008;47.404;8.502;2023-02-18T12:11:37;14.90;99.90
2010;DHT22;1008;47.404;8.502;2023-02-18T12:14:10;14.90;99.90
2010;DHT22;1008;47.404;8.502;2023-02-18T12:16:51;15.00;99.90
2010;DHT22;1008;47.404;8.502;2023-02-18T12:19:41;15.10;99.90
2010;DHT22;1008;47.404;8.502;2023-02-18T12:22:12;15.10;99.90
2010;DHT22;1008;47.404;8.502;2023-02-18T12:24:54;15.10;99.90
2010;DHT22;1008;47.404;8.502;2023-02-18T12:27:29;15.20;99.90
2010;DHT22;1008;47.404;8.502;2023-02-18T12:32:54;15.20;99.90
2010;DHT22;1008;47.404;8.502;2023-02-18T12:35:37;15.60;99.90
2010;DHT22;1008;47.404;8.502;2023-02-18T12:44:05;15.60;99.90
2010;DHT22;1008;47.404;8.502;2023-02-18T12:46:54;15.50;99.90
2010;DHT22;1008;47.404;8.502;2023-02-18T12:49:46;15.60;99.90
2010;DHT22;1008;47.404;8.502;2023-02-18T12:52:25;15.50;99.90
2010;DHT22;1008;47.404;8.502;2023-02-18T12:55:35;15.50;99.90
2010;DHT22;1008;47.404;8.502;2023-02-18T12:58:12;15.00;99.90
2010;DHT22;1008;47.404;8.502;2023-02-18T13:01:02;15.30;99.90
2010;DHT22;1008;47.404;8.502;2023-02-18T13:07:04;15.90;99.90
2010;DHT22;1008;47.404;8.502;2023-02-18T13:09:44;16.00;99.90
2010;DHT22;1008;47.404;8.502;2023-02-18T13:12:19;16.10;99.90
2010;DHT22;1008;47.404;8.502;2023-02-18T13:14:54;16.40;99.90
2010;DHT22;1008;47.404;8.502;2023-02-18T13:17:24;16.60;99.90
2010;DHT22;1008;47.404;8.502;2023-02-18T13:19:56;16.60;99.90
2010;DHT22;1008;47.404;8.502;2023-02-18T13:22:26;16.40;99.90
2010;DHT22;1008;47.404;8.502;2023-02-18T13:24:56;16.50;99.90
2010;DHT22;1008;47.404;8.502;2023-02-18T13:27:30;16.40;99.90
2010;DHT22;1008;47.404;8.502;2023-02-18T13:30:15;16.10;99.90
2010;DHT22;1008;47.404;8.502;2023-02-18T13:32:52;16.00;99.90
2010;DHT22;1008;47.404;8.502;2023-02-18T13:35:28;16.30;99.90
2010;DHT22;1008;47.404;8.502;2023-02-18T13:38:08;16.20;99.90
2010;DHT22;1008;47.404;8.502;2023-02-18T13:40:38;16.10;99.90
2010;DHT22;1008;47.404;8.502;2023-02-18T13:43:18;16.20;99.90
2010;DHT22;1008;47.404;8.502;2023-02-18T13:46:02;16.20;99.90
2010;DHT22;1008;47.404;8.502;2023-02-18T13:48:33;16.30;99.90
2010;DHT22;1008;47.404;8.502;2023-02-18T13:51:03;16.40;99.90
2010;DHT22;1008;47.404;8.502;2023-02-18T13:53:31;16.40;99.90
2010;DHT22;1008;47.404;8.502;2023-02-18T13:56:04;16.40;99.90
2010;DHT22;1008;47.404;8.502;2023-02-18T13:58:38;16.40;99.90
2010;DHT22;1008;47.404;8.502;2023-02-18T14:01:14;16.00;99.90
2010;DHT22;1008;47.404;8.502;2023-02-18T14:07:26;16.10;99.90
2010;DHT22;1008;47.404;8.502;2023-02-18T14:09:54;16.20;99.90
2010;DHT22;1008;47.404;8.502;2023-02-18T14:12:34;16.40;99.90
2010;DHT22;1008;47.404;8.502;2023-02-18T14:18:08;16.50;99.90
2010;DHT22;1008;47.404;8.502;2023-02-18T14:20:46;16.20;99.90
2010;DHT22;1008;47.404;8.502;2023-02-18T14:23:39;16.40;99.90
2010;DHT22;1008;47.404;8.502;2023-02-18T14:26:08;16.40;99.90
2010;DHT22;1008;47.404;8.502;2023-02-18T14:28:47;16.40;99.90
2010;DHT22;1008;47.404;8.502;2023-02-18T14:31:31;16.20;99.90
2010;DHT22;1008;47.404;8.502;2023-02-18T14:34:34;16.10;99.90
2010;DHT22;1008;47.404;8.502;2023-02-18T14:37:29;16.10;99.90
2010;DHT22;1008;47.404;8.502;2023-02-18T14:40:14;16.20;99.90
2010;DHT22;1008;47.404;8.502;2023-02-18T14:42:47;16.10;99.90
2010;DHT22;1008;47.404;8.502;2023-02-18T14:45:28;16.00;99.90
2010;DHT22;1008;47.404;8.502;2023-02-18T14:48:20;15.90;99.90
2010;DHT22;1008;47.404;8.502;2023-02-18T14:50:50;15.80;99.90
2010;DHT22;1008;47.404;8.502;2023-02-18T14:53:19;16.00;99.90
2010;DHT22;1008;47.404;8.502;2023-02-18T14:55:52;16.10;99.90
2010;DHT22;1008;47.404;8.502;2023-02-18T14:58:27;16.10;99.90
2010;DHT22;1008;47.404;8.502;2023-02-18T15:00:54;16.10;99.90
2010;DHT22;1008;47.404;8.502;2023-02-18T15:03:21;16.10;99.90
2010;DHT22;1008;47.404;8.502;2023-02-18T15:05:50;16.30;99.90
2010;DHT22;1008;47.404;8.502;2023-02-18T15:08:18;16.10;99.90
2010;DHT22;1008;47.404;8.502;2023-02-18T15:10:49;16.20;99.90
2010;DHT22;1008;47.404;8.502;2023-02-18T15:13:21;16.20;99.90
2010;DHT22;1008;47.404;8.502;2023-02-18T15:15:52;16.10;99.90
2010;DHT22;1008;47.404;8.502;2023-02-18T15:18:27;16.10;99.90
2010;DHT22;1008;47.404;8.502;2023-02-18T15:20:55;16.20;99.90
2010;DHT22;1008;47.404;8.502;2023-02-18T15:23:22;16.20;99.90
2010;DHT22;1008;47.404;8.502;2023-02-18T15:25:51;16.40;99.90
2010;DHT22;1008;47.404;8.502;2023-02-18T15:28:24;16.20;99.90
2010;DHT22;1008;47.404;8.502;2023-02-18T15:30:52;16.30;99.90
2010;DHT22;1008;47.404;8.502;2023-02-18T15:33:20;16.30;99.90
2010;DHT22;1008;47.404;8.502;2023-02-18T15:35:47;16.30;99.90
2010;DHT22;1008;47.404;8.502;2023-02-18T15:38:15;16.00;99.90
2010;DHT22;1008;47.404;8.502;2023-02-18T15:40:45;16.20;99.90
2010;DHT22;1008;47.404;8.502;2023-02-18T15:43:16;16.10;99.90
2010;DHT22;1008;47.404;8.502;2023-02-18T15:45:46;15.80;99.90
2010;DHT22;1008;47.404;8.502;2023-02-18T15:48:21;15.70;99.90
2010;DHT22;1008;47.404;8.502;2023-02-18T15:50:52;15.50;99.90
2010;DHT22;1008;47.404;8.502;2023-02-18T15:53:20;15.70;99.90
2010;DHT22;1008;47.404;8.502;2023-02-18T15:55:49;15.50;99.90
2010;DHT22;1008;47.404;8.502;2023-02-18T15:58:22;15.50;99.90
2010;DHT22;1008;47.404;8.502;2023-02-18T16:00:52;15.50;99.90
2010;DHT22;1008;47.404;8.502;2023-02-18T16:03:20;15.60;99.90
2010;DHT22;1008;47.404;8.502;2023-02-18T16:05:48;15.60;99.90
2010;DHT22;1008;47.404;8.502;2023-02-18T16:08:20;15.30;99.90
2010;DHT22;1008;47.404;8.502;2023-02-18T16:10:51;15.40;99.90
2010;DHT22;1008;47.404;8.502;2023-02-18T16:13:21;15.30;99.90
2010;DHT22;1008;47.404;8.502;2023-02-18T16:15:49;15.10;99.90
2010;DHT22;1008;47.404;8.502;2023-02-18T16:18:29;15.10;99.90
2010;DHT22;1008;47.404;8.502;2023-02-18T16:20:59;14.80;99.90
2010;DHT22;1008;47.404;8.502;2023-02-18T16:23:32;14.60;99.90
2010;DHT22;1008;47.404;8.502;2023-02-18T16:26:10;14.40;99.90
2010;DHT22;1008;47.404;8.502;2023-02-18T16:28:41;14.30;99.90
2010;DHT22;1008;47.404;8.502;2023-02-18T16:31:09;14.10;99.90
2010;DHT22;1008;47.404;8.502;2023-02-18T16:33:35;14.20;99.90
2010;DHT22;1008;47.404;8.502;2023-02-18T16:36:03;14.10;99.90
2010;DHT22;1008;47.404;8.502;2023-02-18T16:38:29;14.30;99.90
2010;DHT22;1008;47.404;8.502;2023-02-18T16:40:56;14.30;99.90
2010;DHT22;1008;47.404;8.502;2023-02-18T16:43:25;14.40;99.90
2010;DHT22;1008;47.404;8.502;2023-02-18T16:46:05;14.40;99.90
2010;DHT22;1008;47.404;8.502;2023-02-18T16:48:34;14.30;99.90
2010;DHT22;1008;47.404;8.502;2023-02-18T16:51:04;14.20;99.90
2010;DHT22;1008;47.404;8.502;2023-02-18T16:53:31;14.10;99.90
2010;DHT22;1008;47.404;8.502;2023-02-18T16:55:58;14.10;99.90
2010;DHT22;1008;47.404;8.502;2023-02-18T16:58:26;13.90;99.90